sensor_id;sensor_type;location;lat;lon;timestamp;temperature;humidity
50738;DHT22;36703;48.154;17.126;2022-12-15T00:01:47;4.70;55.60
50738;DHT22;36703;48.154;17.126;2022-12-15T07:23:31;4.90;57.40
50738;DHT22;36703;48.154;17.126;2022-12-15T07:27:33;4.90;57.20
50738;DHT22;36703;48.154;17.126;2022-12-15T07:31:35;5.00;57.30
50738;DHT22;36703;48.154;17.126;2022-12-15T07:35:36;5.10;57.30
50738;DHT22;36703;48.154;17.126;2022-12-15T07:39:38;5.10;57.20
50738;DHT22;36703;48.154;17.126;2022-12-15T07:43:40;5.10;57.10
50738;DHT22;36703;48.154;17.126;2022-12-15T07:47:41;5.10;57.10
50738;DHT22;36703;48.154;17.126;2022-12-15T07:51:43;5.20;57.20
50738;DHT22;36703;48.154;17.126;2022-12-15T07:55:55;5.20;57.10
50738;DHT22;36703;48.154;17.126;2022-12-15T07:59:58;5.20;57.00
50738;DHT22;36703;48.154;17.126;2022-12-15T08:04:00;5.10;57.20
50738;DHT22;36703;48.154;17.126;2022-12-15T08:08:01;5.20;57.30
50738;DHT22;36703;48.154;17.126;2022-12-15T08:12:03;5.30;57.20
50738;DHT22;36703;48.154;17.126;2022-12-15T08:16:05;5.30;57.10
50738;DHT22;36703;48.154;17.126;2022-12-15T08:20:07;5.30;57.20
50738;DHT22;36703;48.154;17.126;2022-12-15T08:24:09;5.40;57.20
50738;DHT22;36703;48.154;17.126;2022-12-15T08:28:11;5.50;57.20
50738;DHT22;36703;48.154;17.126;2022-12-15T08:32:12;5.60;57.10
50738;DHT22;36703;48.154;17.126;2022-12-15T08:36:16;5.50;57.10
50738;DHT22;36703;48.154;17.126;2022-12-15T08:40:19;5.50;57.00
50738;DHT22;36703;48.154;17.126;2022-12-15T08:44:20;5.50;57.00
50738;DHT22;36703;48.154;17.126;2022-12-15T08:48:23;5.50;57.20
50738;DHT22;36703;48.154;17.126;2022-12-15T08:52:24;5.50;57.30
50738;DHT22;36703;48.154;17.126;2022-12-15T08:56:26;5.60;57.30
50738;DHT22;36703;48.154;17.126;2022-12-15T09:00:28;5.50;57.10
50738;DHT22;36703;48.154;17.126;2022-12-15T09:04:30;5.50;57.20
50738;DHT22;36703;48.154;17.126;2022-12-15T09:08:32;5.60;57.40
50738;DHT22;36703;48.154;17.126;2022-12-15T09:12:34;5.70;57.20
50738;DHT22;36703;48.154;17.126;2022-12-15T09:16:36;5.60;57.20
50738;DHT22;36703;48.154;17.126;2022-12-15T09:20:37;5.70;57.30
50738;DHT22;36703;48.154;17.126;2022-12-15T09:24:39;5.70;57.80
50738;DHT22;36703;48.154;17.126;2022-12-15T09:28:41;5.70;57.20
50738;DHT22;36703;48.154;17.126;2022-12-15T09:32:45;5.80;57.20
50738;DHT22;36703;48.154;17.126;2022-12-15T09:36:47;5.70;57.20
50738;DHT22;36703;48.154;17.126;2022-12-15T09:40:48;5.60;57.20
50738;DHT22;36703;48.154;17.126;2022-12-15T09:44:52;5.60;57.30
50738;DHT22;36703;48.154;17.126;2022-12-15T09:49:10;5.70;57.40
50738;DHT22;36703;48.154;17.126;2022-12-15T09:53:16;5.80;57.20
50738;DHT22;36703;48.154;17.126;2022-12-15T10:06:49;5.80;57.20
50738;DHT22;36703;48.154;17.126;2022-12-15T10:10:56;5.70;57.20
50738;DHT22;36703;48.154;17.126;2022-12-15T10:15:39;5.80;57.30
50738;DHT22;36703;48.154;17.126;2022-12-15T10:19:52;5.80;57.20
50738;DHT22;36703;48.154;17.126;2022-12-15T10:24:11;5.80;57.20
50738;DHT22;36703;48.154;17.126;2022-12-15T10:28:29;5.80;57.30
50738;DHT22;36703;48.154;17.126;2022-12-15T10:37:26;5.90;57.30
50738;DHT22;36703;48.154;17.126;2022-12-15T10:41:30;5.90;57.30
50738;DHT22;36703;48.154;17.126;2022-12-15T10:45:37;6.00;57.30
50738;DHT22;36703;48.154;17.126;2022-12-15T10:49:39;6.00;57.10
50738;DHT22;36703;48.154;17.126;2022-12-15T10:53:42;6.00;57.10
50738;DHT22;36703;48.154;17.126;2022-12-15T10:58:00;6.00;57.20
50738;DHT22;36703;48.154;17.126;2022-12-15T11:06:33;6.10;57.20
50738;DHT22;36703;48.154;17.126;2022-12-15T11:10:49;6.10;57.70
50738;DHT22;36703;48.154;17.126;2022-12-15T11:23:46;6.00;57.30
50738;DHT22;36703;48.154;17.126;2022-12-15T11:27:53;6.10;57.40
50738;DHT22;36703;48.154;17.126;2022-12-15T11:31:56;6.00;57.20
50738;DHT22;36703;48.154;17.126;2022-12-15T11:36:38;6.10;57.20
50738;DHT22;36703;48.154;17.126;2022-12-15T11:40:39;6.10;57.30
50738;DHT22;36703;48.154;17.126;2022-12-15T11:53:51;6.10;57.30
50738;DHT22;36703;48.154;17.126;2022-12-15T11:58:44;6.00;57.30
50738;DHT22;36703;48.154;17.126;2022-12-15T12:03:20;6.00;57.40
50738;DHT22;36703;48.154;17.126;2022-12-15T12:07:37;6.00;57.30
50738;DHT22;36703;48.154;17.126;2022-12-15T12:12:28;6.00;57.40
50738;DHT22;36703;48.154;17.126;2022-12-15T12:16:39;6.10;57.50
50738;DHT22;36703;48.154;17.126;2022-12-15T12:25:22;6.10;57.40
50738;DHT22;36703;48.154;17.126;2022-12-15T12:29:33;6.10;57.50
50738;DHT22;36703;48.154;17.126;2022-12-15T12:33:41;6.10;57.50
50738;DHT22;36703;48.154;17.126;2022-12-15T12:37:51;6.10;57.50
50738;DHT22;36703;48.154;17.126;2022-12-15T12:42:12;6.10;57.50
50738;DHT22;36703;48.154;17.126;2022-12-15T12:46:23;6.00;57.50
50738;DHT22;36703;48.154;17.126;2022-12-15T12:50:29;6.00;57.50
50738;DHT22;36703;48.154;17.126;2022-12-15T12:58:40;6.00;57.60
50738;DHT22;36703;48.154;17.126;2022-12-15T13:03:32;6.00;57.70
50738;DHT22;36703;48.154;17.126;2022-12-15T13:07:37;6.00;57.70
50738;DHT22;36703;48.154;17.126;2022-12-15T13:16:20;6.00;57.80
50738;DHT22;36703;48.154;17.126;2022-12-15T13:20:28;6.00;57.70
50738;DHT22;36703;48.154;17.126;2022-12-15T13:24:46;6.10;57.70
50738;DHT22;36703;48.154;17.126;2022-12-15T13:28:49;6.10;57.70
50738;DHT22;36703;48.154;17.126;2022-12-15T13:33:13;6.10;57.60
50738;DHT22;36703;48.154;17.126;2022-12-15T13:37:47;6.20;57.60
50738;DHT22;36703;48.154;17.126;2022-12-15T13:46:15;6.10;57.50
50738;DHT22;36703;48.154;17.126;2022-12-15T13:50:39;6.10;57.70
50738;DHT22;36703;48.154;17.126;2022-12-15T13:54:58;6.10;57.70
50738;DHT22;36703;48.154;17.126;2022-12-15T13:59:25;6.10;57.70
50738;DHT22;36703;48.154;17.126;2022-12-15T14:03:38;6.10;57.80
50738;DHT22;36703;48.154;17.126;2022-12-15T14:11:47;6.10;57.70
50738;DHT22;36703;48.154;17.126;2022-12-15T14:16:40;6.10;57.70
50738;DHT22;36703;48.154;17.126;2022-12-15T14:20:23;6.00;57.80
50738;DHT22;36703;48.154;17.126;2022-12-15T14:24:30;6.00;57.80
50738;DHT22;36703;48.154;17.126;2022-12-15T14:28:34;6.00;58.40
50738;DHT22;36703;48.154;17.126;2022-12-15T14:32:37;6.00;57.90
50738;DHT22;36703;48.154;17.126;2022-12-15T14:36:41;6.00;58.60
50738;DHT22;36703;48.154;17.126;2022-12-15T14:40:44;6.00;58.00
50738;DHT22;36703;48.154;17.126;2022-12-15T14:44:46;5.90;58.10
50738;DHT22;36703;48.154;17.126;2022-12-15T14:48:55;5.90;58.20
50738;DHT22;36703;48.154;17.126;2022-12-15T14:53:01;5.90;58.30
50738;DHT22;36703;48.154;17.126;2022-12-15T14:57:17;5.90;58.30
50738;DHT22;36703;48.154;17.126;2022-12-15T15:05:33;5.80;58.40
50738;DHT22;36703;48.154;17.126;2022-12-15T15:13:40;5.80;58.70
50738;DHT22;36703;48.154;17.126;2022-12-15T15:17:49;5.80;58.60
50738;DHT22;36703;48.154;17.126;2022-12-15T15:21:52;5.80;58.70
50738;DHT22;36703;48.154;17.126;2022-12-15T15:25:55;5.70;58.70
50738;DHT22;36703;48.154;17.126;2022-12-15T15:30:22;5.70;58.70
50738;DHT22;36703;48.154;17.126;2022-12-15T15:34:24;5.70;58.80
50738;DHT22;36703;48.154;17.126;2022-12-15T15:38:30;5.70;58.90
50738;DHT22;36703;48.154;17.126;2022-12-15T15:42:34;5.70;59.00
50738;DHT22;36703;48.154;17.126;2022-12-15T15:46:36;5.80;59.00
50738;DHT22;36703;48.154;17.126;2022-12-15T15:50:42;5.80;59.00
50738;DHT22;36703;48.154;17.126;2022-12-15T15:54:49;5.80;58.80
50738;DHT22;36703;48.154;17.126;2022-12-15T15:58:52;5.80;58.90
50738;DHT22;36703;48.154;17.126;2022-12-15T16:02:54;5.70;59.00
50738;DHT22;36703;48.154;17.126;2022-12-15T16:06:55;5.80;59.10
50738;DHT22;36703;48.154;17.126;2022-12-15T16:10:57;5.80;59.10
50738;DHT22;36703;48.154;17.126;2022-12-15T16:14:58;5.80;59.10
50738;DHT22;36703;48.154;17.126;2022-12-15T16:19:00;5.70;59.00
50738;DHT22;36703;48.154;17.126;2022-12-15T16:23:09;5.70;59.10
50738;DHT22;36703;48.154;17.126;2022-12-15T16:27:13;5.70;59.20
50738;DHT22;36703;48.154;17.126;2022-12-15T16:31:30;5.70;59.20
50738;DHT22;36703;48.154;17.126;2022-12-15T16:35:33;5.70;59.20
50738;DHT22;36703;48.154;17.126;2022-12-15T16:39:35;5.80;59.20
50738;DHT22;36703;48.154;17.126;2022-12-15T16:43:36;5.70;59.20
50738;DHT22;36703;48.154;17.126;2022-12-15T16:47:38;5.70;59.30
50738;DHT22;36703;48.154;17.126;2022-12-15T16:51:42;5.70;59.30
50738;DHT22;36703;48.154;17.126;2022-12-15T16:55:52;5.70;59.30
50738;DHT22;36703;48.154;17.126;2022-12-15T16:59:55;5.80;59.20
50738;DHT22;36703;48.154;17.126;2022-12-15T17:03:56;5.80;59.20
50738;DHT22;36703;48.154;17.126;2022-12-15T17:08:00;5.80;59.00
50738;DHT22;36703;48.154;17.126;2022-12-15T17:12:04;5.70;59.30
50738;DHT22;36703;48.154;17.126;2022-12-15T17:16:08;5.70;59.30
50738;DHT22;36703;48.154;17.126;2022-12-15T17:20:22;5.70;59.30
50738;DHT22;36703;48.154;17.126;2022-12-15T17:24:26;5.60;59.30
50738;DHT22;36703;48.154;17.126;2022-12-15T17:28:28;5.60;59.40
50738;DHT22;36703;48.154;17.126;2022-12-15T17:32:31;5.60;59.60
50738;DHT22;36703;48.154;17.126;2022-12-15T17:36:32;5.60;59.60
50738;DHT22;36703;48.154;17.126;2022-12-15T17:40:34;5.60;59.60
50738;DHT22;36703;48.154;17.126;2022-12-15T17:44:35;5.60;59.60
50738;DHT22;36703;48.154;17.126;2022-12-15T17:48:37;5.50;59.50
50738;DHT22;36703;48.154;17.126;2022-12-15T17:52:39;5.50;59.70
50738;DHT22;36703;48.154;17.126;2022-12-15T17:56:45;5.50;59.80
50738;DHT22;36703;48.154;17.126;2022-12-15T18:00:50;5.50;59.80
50738;DHT22;36703;48.154;17.126;2022-12-15T18:04:53;5.50;59.80
50738;DHT22;36703;48.154;17.126;2022-12-15T18:08:55;5.60;59.90
50738;DHT22;36703;48.154;17.126;2022-12-15T18:12:57;5.60;59.80
50738;DHT22;36703;48.154;17.126;2022-12-15T18:16:59;5.60;59.80
50738;DHT22;36703;48.154;17.126;2022-12-15T18:21:04;5.60;59.80
50738;DHT22;36703;48.154;17.126;2022-12-15T18:25:25;5.60;59.80
50738;DHT22;36703;48.154;17.126;2022-12-15T18:29:28;5.60;59.70
50738;DHT22;36703;48.154;17.126;2022-12-15T18:33:29;5.60;59.80
50738;DHT22;36703;48.154;17.126;2022-12-15T18:37:31;5.80;60.10
50738;DHT22;36703;48.154;17.126;2022-12-15T18:41:34;5.80;59.90
50738;DHT22;36703;48.154;17.126;2022-12-15T18:45:36;5.80;59.60
50738;DHT22;36703;48.154;17.126;2022-12-15T18:49:38;5.80;59.70
50738;DHT22;36703;48.154;17.126;2022-12-15T18:53:39;5.70;59.70
50738;DHT22;36703;48.154;17.126;2022-12-15T18:57:41;5.70;59.80
50738;DHT22;36703;48.154;17.126;2022-12-15T19:01:47;5.70;59.80
50738;DHT22;36703;48.154;17.126;2022-12-15T19:05:57;5.70;59.80
50738;DHT22;36703;48.154;17.126;2022-12-15T19:10:01;5.70;59.80
50738;DHT22;36703;48.154;17.126;2022-12-15T19:14:02;5.70;59.80
50738;DHT22;36703;48.154;17.126;2022-12-15T19:18:05;5.70;59.90
50738;DHT22;36703;48.154;17.126;2022-12-15T19:22:24;5.70;59.80
50738;DHT22;36703;48.154;17.126;2022-12-15T19:26:29;5.70;59.70
50738;DHT22;36703;48.154;17.126;2022-12-15T19:30:32;5.70;59.80
50738;DHT22;36703;48.154;17.126;2022-12-15T19:34:34;5.70;59.80
50738;DHT22;36703;48.154;17.126;2022-12-15T19:38:35;5.70;59.80
50738;DHT22;36703;48.154;17.126;2022-12-15T19:42:38;5.70;59.80
50738;DHT22;36703;48.154;17.126;2022-12-15T19:46:41;5.70;59.80
50738;DHT22;36703;48.154;17.126;2022-12-15T19:50:43;5.80;59.90
50738;DHT22;36703;48.154;17.126;2022-12-15T19:54:47;5.70;59.80
50738;DHT22;36703;48.154;17.126;2022-12-15T19:58:50;5.70;59.90
50738;DHT22;36703;48.154;17.126;2022-12-15T20:02:52;5.70;59.90
50738;DHT22;36703;48.154;17.126;2022-12-15T20:06:54;5.70;59.90
50738;DHT22;36703;48.154;17.126;2022-12-15T20:10:56;5.70;59.80
50738;DHT22;36703;48.154;17.126;2022-12-15T20:14:58;5.70;59.80
50738;DHT22;36703;48.154;17.126;2022-12-15T20:18:59;5.70;59.80
50738;DHT22;36703;48.154;17.126;2022-12-15T20:23:14;5.70;59.80
50738;DHT22;36703;48.154;17.126;2022-12-15T20:27:18;5.70;60.00
50738;DHT22;36703;48.154;17.126;2022-12-15T20:31:21;5.70;59.90
50738;DHT22;36703;48.154;17.126;2022-12-15T20:35:24;5.70;60.00
50738;DHT22;36703;48.154;17.126;2022-12-15T20:39:27;5.70;60.00
50738;DHT22;36703;48.154;17.126;2022-12-15T20:43:30;5.60;60.10
50738;DHT22;36703;48.154;17.126;2022-12-15T20:47:32;5.60;60.20
50738;DHT22;36703;48.154;17.126;2022-12-15T20:51:34;5.60;60.50
50738;DHT22;36703;48.154;17.126;2022-12-15T20:55:35;5.60;60.50
50738;DHT22;36703;48.154;17.126;2022-12-15T20:59:37;5.60;60.60
50738;DHT22;36703;48.154;17.126;2022-12-15T21:03:39;5.60;60.50
50738;DHT22;36703;48.154;17.126;2022-12-15T21:07:41;5.60;60.60
50738;DHT22;36703;48.154;17.126;2022-12-15T21:11:42;5.60;60.70
50738;DHT22;36703;48.154;17.126;2022-12-15T21:15:46;5.60;60.60
50738;DHT22;36703;48.154;17.126;2022-12-15T21:19:48;5.60;60.80
50738;DHT22;36703;48.154;17.126;2022-12-15T21:23:50;5.60;60.90
50738;DHT22;36703;48.154;17.126;2022-12-15T21:27:51;5.60;61.10
50738;DHT22;36703;48.154;17.126;2022-12-15T21:31:53;5.60;61.30
50738;DHT22;36703;48.154;17.126;2022-12-15T21:35:55;5.50;61.30
50738;DHT22;36703;48.154;17.126;2022-12-15T21:39:56;5.50;61.50
50738;DHT22;36703;48.154;17.126;2022-12-15T21:43:59;5.50;61.70
50738;DHT22;36703;48.154;17.126;2022-12-15T21:48:01;5.60;61.70
50738;DHT22;36703;48.154;17.126;2022-12-15T21:52:21;5.50;61.70
50738;DHT22;36703;48.154;17.126;2022-12-15T21:56:24;5.50;61.90
50738;DHT22;36703;48.154;17.126;2022-12-15T22:00:26;5.50;62.10
50738;DHT22;36703;48.154;17.126;2022-12-15T22:04:30;5.50;62.20
50738;DHT22;36703;48.154;17.126;2022-12-15T22:08:33;5.50;62.10
50738;DHT22;36703;48.154;17.126;2022-12-15T22:12:36;5.50;62.10
50738;DHT22;36703;48.154;17.126;2022-12-15T22:16:38;5.60;62.40
50738;DHT22;36703;48.154;17.126;2022-12-15T22:20:40;5.50;62.30
50738;DHT22;36703;48.154;17.126;2022-12-15T22:24:42;5.50;62.40
50738;DHT22;36703;48.154;17.126;2022-12-15T22:28:44;5.50;62.40
50738;DHT22;36703;48.154;17.126;2022-12-15T22:32:45;5.60;62.40
50738;DHT22;36703;48.154;17.126;2022-12-15T22:36:48;5.60;62.40
50738;DHT22;36703;48.154;17.126;2022-12-15T22:40:53;5.60;62.50
50738;DHT22;36703;48.154;17.126;2022-12-15T22:44:57;5.60;62.60
50738;DHT22;36703;48.154;17.126;2022-12-15T22:48:59;5.60;62.80
50738;DHT22;36703;48.154;17.126;2022-12-15T22:53:01;5.50;62.70
50738;DHT22;36703;48.154;17.126;2022-12-15T22:57:07;5.50;62.90
50738;DHT22;36703;48.154;17.126;2022-12-15T23:01:13;5.60;63.00
50738;DHT22;36703;48.154;17.126;2022-12-15T23:05:16;5.60;63.10
50738;DHT22;36703;48.154;17.126;2022-12-15T23:09:19;5.60;63.00
50738;DHT22;36703;48.154;17.126;2022-12-15T23:13:20;5.60;63.10
50738;DHT22;36703;48.154;17.126;2022-12-15T23:17:22;5.70;63.10
50738;DHT22;36703;48.154;17.126;2022-12-15T23:21:24;5.60;63.00
50738;DHT22;36703;48.154;17.126;2022-12-15T23:25:26;5.70;63.10
50738;DHT22;36703;48.154;17.126;2022-12-15T23:29:28;5.60;63.10
50738;DHT22;36703;48.154;17.126;2022-12-15T23:33:29;5.60;63.20
50738;DHT22;36703;48.154;17.126;2022-12-15T23:37:31;5.60;63.30
